West Liberty, Kentucky
Current Conditions -  °F | °C
As of 1:21 PM on Friday 31 Oct 2014 (Local Time) from KJKL Reporting Station
Light Rain Light Rain  
Wind Chill: 44°   Ceiling: 500
Heat Index: 44°   Visibility: 6mi
Dew Point: 42°   Wind: 0mph
Humidity: 93%   Direction: NA
Pressure: 29.92"   Gusts: NA
Location:  37.92°N, 83.26°W
Report Text: KJKL 311721Z AUTO 00000KT 6SM -RA BR BKN005 BKN014 OVC022 07/06 A2992 RMK AO2 CIG 004V009 P0000 T00670056
Loading
Personal Weather Stations






























Interactive Weather Map
Tropical Storm Tracking
New forecast layout! Learn more

10-Day Weather Forecast

Advertisements
Track Severe Weather on mobile